createdAt,value
2016-09-14T00:00:04.409Z,50.33
2016-09-14T00:00:26.130Z,50.25
2016-09-14T00:00:47.855Z,49.95
2016-09-14T00:01:09.580Z,49.95
2016-09-14T00:01:31.325Z,50.04
2016-09-14T00:01:53.059Z,50.04
2016-09-14T00:02:14.802Z,50.22
2016-09-14T00:02:36.517Z,50.34
2016-09-14T00:02:58.245Z,50.40
2016-09-14T00:03:19.971Z,50.36
2016-09-14T00:03:41.689Z,50.42
2016-09-14T00:04:03.401Z,50.13
2016-09-14T00:04:25.132Z,50.24
2016-09-14T00:04:46.879Z,50.42
2016-09-14T00:05:09.593Z,50.42
2016-09-14T00:05:31.315Z,50.42
2016-09-14T00:05:53.062Z,50.47
2016-09-14T00:06:14.812Z,50.53
2016-09-14T00:06:36.524Z,50.52
2016-09-14T00:06:58.262Z,50.76
2016-09-14T00:07:24.757Z,51.16
2016-09-14T00:07:46.492Z,51.25
2016-09-14T00:08:08.220Z,51.09
2016-09-14T00:08:29.948Z,50.66
2016-09-14T00:08:51.663Z,50.28
2016-09-14T00:09:13.384Z,50.14
2016-09-14T00:09:39.887Z,49.90
2016-09-14T00:10:01.606Z,49.66
2016-09-14T00:10:23.346Z,49.52
2016-09-14T00:10:45.071Z,49.60
2016-09-14T00:11:06.796Z,49.98
2016-09-14T00:11:28.511Z,49.91
2016-09-14T00:11:50.239Z,49.61
2016-09-14T00:12:11.963Z,49.58
2016-09-14T00:12:33.813Z,49.69
2016-09-14T00:12:55.542Z,49.61
2016-09-14T00:13:17.260Z,49.47
2016-09-14T00:13:38.988Z,49.31
2016-09-14T00:14:00.706Z,49.50
2016-09-14T00:14:22.420Z,49.58
2016-09-14T00:14:44.146Z,49.72
2016-09-14T00:15:05.871Z,49.99
2016-09-14T00:15:27.603Z,50.28
2016-09-14T00:15:49.334Z,50.62
2016-09-14T00:16:11.064Z,51.14
2016-09-14T00:16:32.799Z,51.25
2016-09-14T00:16:55.539Z,51.44
2016-09-14T00:17:17.285Z,51.44
2016-09-14T00:17:43.776Z,51.42
2016-09-14T00:18:05.504Z,51.33
2016-09-14T00:18:31.993Z,51.25
2016-09-14T00:18:53.753Z,50.94
2016-09-14T00:19:16.486Z,50.68
2016-09-14T00:19:38.210Z,50.27
2016-09-14T00:19:59.939Z,50.41
2016-09-14T00:20:21.663Z,50.19
2016-09-14T00:20:43.382Z,50.16
2016-09-14T00:21:05.221Z,50.29
2016-09-14T00:21:26.946Z,50.24
2016-09-14T00:21:48.665Z,50.12
2016-09-14T00:22:10.387Z,50.57
2016-09-14T00:22:32.120Z,50.86
2016-09-14T00:22:53.829Z,51.04
2016-09-14T00:23:15.561Z,51.21
2016-09-14T00:23:37.279Z,51.08
2016-09-14T00:23:58.998Z,51.06
2016-09-14T00:24:20.719Z,50.82
2016-09-14T00:24:42.444Z,51.05
2016-09-14T00:25:04.165Z,51.28
2016-09-14T00:25:26.895Z,51.27
2016-09-14T00:25:48.605Z,51.41
2016-09-14T00:26:10.326Z,51.52
2016-09-14T00:26:32.053Z,51.50
2016-09-14T00:26:53.773Z,51.43
2016-09-14T00:27:15.510Z,51.12
2016-09-14T00:27:37.228Z,51.13
2016-09-14T00:28:03.833Z,51.11
2016-09-14T00:28:25.567Z,51.09
2016-09-14T00:28:47.283Z,51.23
2016-09-14T00:29:09.014Z,50.92
2016-09-14T00:29:30.739Z,50.90
2016-09-14T00:29:52.464Z,51.15
2016-09-14T00:30:14.191Z,51.16
2016-09-14T00:30:35.913Z,51.15
2016-09-14T00:30:57.637Z,51.16
2016-09-14T00:31:19.366Z,51.43
2016-09-14T00:31:41.090Z,51.76
2016-09-14T00:32:02.844Z,51.67
2016-09-14T00:32:24.558Z,51.49
2016-09-14T00:32:46.390Z,51.63
2016-09-14T00:33:08.127Z,51.68
2016-09-14T00:33:29.855Z,52.03
2016-09-14T00:33:51.616Z,52.21
2016-09-14T00:34:13.336Z,52.22
2016-09-14T00:34:35.065Z,52.18
2016-09-14T00:34:56.786Z,52.21
2016-09-14T00:35:18.517Z,52.30
2016-09-14T00:35:45.014Z,52.57
2016-09-14T00:36:06.735Z,52.66
2016-09-14T00:36:28.473Z,52.87
2016-09-14T00:36:50.190Z,53.23
2016-09-14T00:37:11.929Z,53.29
2016-09-14T00:37:33.669Z,53.41
2016-09-14T00:37:55.395Z,53.24
2016-09-14T00:38:17.115Z,52.92
2016-09-14T00:38:38.845Z,52.79
2016-09-14T00:39:00.668Z,52.97
2016-09-14T00:39:22.390Z,53.26
2016-09-14T00:39:44.182Z,53.26
2016-09-14T00:40:05.909Z,53.21
2016-09-14T00:40:27.622Z,52.92
2016-09-14T00:40:49.362Z,52.64
2016-09-14T00:41:11.078Z,52.09
2016-09-14T00:41:32.809Z,51.81
2016-09-14T00:41:54.610Z,51.93
2016-09-14T00:42:16.332Z,52.17
2016-09-14T00:42:38.098Z,52.00
2016-09-14T00:42:59.820Z,52.24
2016-09-14T00:43:21.552Z,52.43
2016-09-14T00:43:43.279Z,52.60
2016-09-14T00:44:04.988Z,52.79
2016-09-14T00:44:26.713Z,53.04
2016-09-14T00:44:48.438Z,53.05
2016-09-14T00:45:10.163Z,53.18
2016-09-14T00:45:36.671Z,53.54
2016-09-14T00:45:58.401Z,53.31
2016-09-14T00:46:20.140Z,53.67
2016-09-14T00:46:41.871Z,53.77
2016-09-14T00:47:03.576Z,53.95
2016-09-14T00:47:25.296Z,54.01
2016-09-14T00:47:48.025Z,53.96
2016-09-14T00:48:09.740Z,53.97
2016-09-14T00:48:31.462Z,53.84
2016-09-14T00:48:53.212Z,53.66
2016-09-14T00:49:14.960Z,53.51
2016-09-14T00:49:37.712Z,53.37
2016-09-14T00:49:59.419Z,52.98
2016-09-14T00:50:22.153Z,53.13
2016-09-14T00:50:43.861Z,53.02
2016-09-14T00:51:32.070Z,53.05
2016-09-14T00:51:53.791Z,53.21
2016-09-14T00:52:15.503Z,53.08
2016-09-14T00:52:37.254Z,53.06
2016-09-14T00:52:58.979Z,53.01
2016-09-14T00:53:21.692Z,52.93
2016-09-14T00:53:43.423Z,53.10
2016-09-14T00:54:07.871Z,53.32
2016-09-14T00:54:29.599Z,53.58
2016-09-14T00:54:51.328Z,53.60
2016-09-14T00:55:13.049Z,53.80
2016-09-14T00:55:34.773Z,53.65
2016-09-14T00:55:56.492Z,53.54
2016-09-14T00:56:18.230Z,53.77
2016-09-14T00:56:44.720Z,54.18
2016-09-14T00:57:07.481Z,54.21
2016-09-14T00:57:55.692Z,53.83
2016-09-14T00:58:17.414Z,53.96
2016-09-14T00:58:39.145Z,54.43
2016-09-14T00:59:00.867Z,54.39
2016-09-14T00:59:22.589Z,54.15
2016-09-14T00:59:44.296Z,54.05
2016-09-14T01:00:07.026Z,54.12
2016-09-14T01:00:28.813Z,54.09
2016-09-14T01:00:50.540Z,54.18
2016-09-14T01:01:12.275Z,54.15
2016-09-14T01:01:34.013Z,54.08
2016-09-14T01:01:55.730Z,53.97
2016-09-14T01:02:17.455Z,53.88
2016-09-14T01:02:43.939Z,53.74
2016-09-14T01:03:05.670Z,53.28
2016-09-14T01:03:30.201Z,53.39
2016-09-14T01:03:51.923Z,53.31
2016-09-14T01:04:13.644Z,53.64
2016-09-14T01:04:35.375Z,54.13
2016-09-14T01:04:57.129Z,54.46
2016-09-14T01:05:18.873Z,54.69
2016-09-14T01:05:40.591Z,54.71
2016-09-14T01:06:02.310Z,54.58
2016-09-14T01:06:24.041Z,54.45
2016-09-14T01:06:45.756Z,54.30
2016-09-14T01:07:12.253Z,54.31
2016-09-14T01:07:34.022Z,54.30
2016-09-14T01:07:55.737Z,54.20
2016-09-14T01:08:17.459Z,54.37
2016-09-14T01:08:39.176Z,54.46
2016-09-14T01:09:01.904Z,54.80
2016-09-14T01:09:26.464Z,54.80
2016-09-14T01:09:49.309Z,54.96
2016-09-14T01:10:11.020Z,54.75
2016-09-14T01:10:35.446Z,54.75
2016-09-14T01:11:01.936Z,54.89
2016-09-14T01:11:23.657Z,54.77
2016-09-14T01:11:45.381Z,54.58
2016-09-14T01:12:08.098Z,54.37
2016-09-14T01:12:30.857Z,54.31
2016-09-14T01:12:52.579Z,54.36
2016-09-14T01:13:14.300Z,54.21
2016-09-14T01:13:36.025Z,54.28
2016-09-14T01:13:57.743Z,54.33
2016-09-14T01:14:19.452Z,54.70
2016-09-14T01:14:41.173Z,54.67
2016-09-14T01:15:33.206Z,53.99
2016-09-14T01:15:54.927Z,53.97
2016-09-14T01:16:16.662Z,53.94
2016-09-14T01:16:41.243Z,53.81
2016-09-14T01:17:30.460Z,54.04
2016-09-14T01:17:52.214Z,54.33
2016-09-14T01:18:13.932Z,54.29
2016-09-14T01:18:35.686Z,54.07
2016-09-14T01:18:57.405Z,54.11
2016-09-14T01:19:51.398Z,54.71
2016-09-14T01:20:13.119Z,54.65
2016-09-14T01:20:34.851Z,54.61
2016-09-14T01:20:56.566Z,54.38
2016-09-14T01:21:19.305Z,54.14
2016-09-14T01:21:41.027Z,53.74
2016-09-14T01:22:03.766Z,53.57
2016-09-14T01:22:25.482Z,53.87
2016-09-14T01:22:48.208Z,54.22
2016-09-14T01:23:12.922Z,54.20
2016-09-14T01:23:34.662Z,54.02
2016-09-14T01:24:01.170Z,53.63
2016-09-14T01:24:22.892Z,53.52
2016-09-14T01:24:44.610Z,53.42
2016-09-14T01:25:07.334Z,53.29
2016-09-14T01:25:34.832Z,52.98
2016-09-14T01:25:56.556Z,53.09
2016-09-14T01:26:18.278Z,52.90
2016-09-14T01:26:40.003Z,53.09
2016-09-14T01:27:01.730Z,53.40
2016-09-14T01:27:23.462Z,53.37
2016-09-14T01:27:49.955Z,53.50
2016-09-14T01:28:11.683Z,53.90
2016-09-14T01:28:33.400Z,54.21
2016-09-14T01:28:55.133Z,54.12
2016-09-14T01:29:16.893Z,54.14
2016-09-14T01:29:38.617Z,54.21
2016-09-14T01:30:05.106Z,54.18
2016-09-14T01:30:26.828Z,54.24
2016-09-14T01:30:48.570Z,54.01
2016-09-14T01:31:10.294Z,54.01
2016-09-14T01:31:32.032Z,54.01
2016-09-14T01:31:56.614Z,53.90
2016-09-14T01:32:18.338Z,53.99
2016-09-14T01:33:06.563Z,54.02
2016-09-14T01:33:28.285Z,53.98
2016-09-14T01:33:51.002Z,53.60
2016-09-14T01:34:12.735Z,53.64
2016-09-14T01:34:35.468Z,53.72
2016-09-14T01:34:58.269Z,53.95
2016-09-14T01:35:19.981Z,53.96
2016-09-14T01:35:41.730Z,54.18
2016-09-14T01:36:03.478Z,54.19
2016-09-14T01:36:25.206Z,54.09
2016-09-14T01:36:46.921Z,53.68
2016-09-14T01:37:09.652Z,53.36
2016-09-14T01:37:31.386Z,53.34
2016-09-14T01:37:53.094Z,53.05
2016-09-14T01:38:14.822Z,53.20
2016-09-14T01:38:44.258Z,53.49
2016-09-14T01:39:06.002Z,53.63
2016-09-14T01:39:27.741Z,53.50
2016-09-14T01:39:50.468Z,53.09
2016-09-14T01:40:12.323Z,53.14
2016-09-14T01:40:34.073Z,53.29
2016-09-14T01:40:55.785Z,53.53
2016-09-14T01:41:44.061Z,53.52
2016-09-14T01:42:05.794Z,53.50
2016-09-14T01:42:27.537Z,53.64
2016-09-14T01:42:50.259Z,53.78
2016-09-14T01:43:11.977Z,53.87
2016-09-14T01:43:34.688Z,54.14
2016-09-14T01:43:59.196Z,54.34
2016-09-14T01:44:21.916Z,54.11
2016-09-14T01:44:43.640Z,53.94
2016-09-14T01:45:05.379Z,53.70
2016-09-14T01:45:27.094Z,53.87
2016-09-14T01:45:48.815Z,54.16
2016-09-14T01:46:10.536Z,54.20
2016-09-14T01:46:32.406Z,54.28
2016-09-14T01:46:54.137Z,54.14
2016-09-14T01:47:15.859Z,54.19
2016-09-14T01:47:37.597Z,54.21
2016-09-14T01:47:59.324Z,54.41
2016-09-14T01:48:21.053Z,54.41
2016-09-14T01:48:42.800Z,54.26
2016-09-14T01:49:04.515Z,54.14
2016-09-14T01:49:30.997Z,54.19
2016-09-14T01:49:57.507Z,54.42
2016-09-14T01:50:19.238Z,54.24
2016-09-14T01:50:40.957Z,54.25
2016-09-14T01:51:02.688Z,54.42
2016-09-14T01:51:24.403Z,54.74
2016-09-14T01:51:46.217Z,54.78
2016-09-14T01:52:07.958Z,54.88
2016-09-14T01:52:29.664Z,54.67
2016-09-14T01:52:52.397Z,54.33
2016-09-14T01:53:14.130Z,54.31
2016-09-14T01:53:35.855Z,54.58
2016-09-14T01:53:57.590Z,54.88
2016-09-14T01:54:19.296Z,54.92
2016-09-14T01:54:41.014Z,54.67
2016-09-14T01:55:02.736Z,54.22
2016-09-14T01:55:24.546Z,54.06
2016-09-14T01:55:46.278Z,54.12
2016-09-14T01:56:08.060Z,54.09
2016-09-14T01:56:29.795Z,54.07
2016-09-14T01:56:51.517Z,54.00
2016-09-14T01:57:18.006Z,54.10
2016-09-14T01:57:39.724Z,54.34
2016-09-14T01:58:01.458Z,54.14
2016-09-14T01:58:23.206Z,54.12
2016-09-14T01:58:44.954Z,54.23
2016-09-14T01:59:06.687Z,54.12
2016-09-14T01:59:33.177Z,54.14
2016-09-14T01:59:54.918Z,53.66
2016-09-14T02:00:16.652Z,53.42
2016-09-14T02:00:38.371Z,53.16
2016-09-14T02:01:00.090Z,53.25
2016-09-14T02:01:21.817Z,53.20
2016-09-14T02:01:43.552Z,53.35
2016-09-14T02:02:05.292Z,53.43
2016-09-14T02:02:27.023Z,53.37
2016-09-14T02:02:48.746Z,53.19
2016-09-14T02:03:10.492Z,53.11
2016-09-14T02:03:32.217Z,52.85
2016-09-14T02:04:25.225Z,53.30
2016-09-14T02:04:46.944Z,53.43
2016-09-14T02:05:11.520Z,53.81
2016-09-14T02:05:35.251Z,53.96
2016-09-14T02:05:56.972Z,53.73
2016-09-14T02:06:18.739Z,53.59
2016-09-14T02:06:45.242Z,53.70
2016-09-14T02:07:06.966Z,53.69
2016-09-14T02:07:28.687Z,53.62
2016-09-14T02:07:50.419Z,53.44
2016-09-14T02:08:13.161Z,53.62
2016-09-14T02:08:34.877Z,53.49
2016-09-14T02:08:56.601Z,53.57
2016-09-14T02:09:18.313Z,53.32
2016-09-14T02:09:40.047Z,53.06
2016-09-14T02:10:01.785Z,53.36
2016-09-14T02:10:23.498Z,53.57
2016-09-14T02:10:50.000Z,53.35
2016-09-14T02:11:11.731Z,53.58
2016-09-14T02:11:33.452Z,53.37
2016-09-14T02:11:55.231Z,53.42
2016-09-14T02:12:21.718Z,53.74
2016-09-14T02:12:48.211Z,53.92
2016-09-14T02:13:09.948Z,53.85
2016-09-14T02:13:32.671Z,53.86
2016-09-14T02:13:57.206Z,53.88
2016-09-14T02:14:18.969Z,53.58
2016-09-14T02:14:41.696Z,53.40
2016-09-14T02:15:12.999Z,53.73
2016-09-14T02:15:34.715Z,53.89
2016-09-14T02:15:56.435Z,53.77
2016-09-14T02:16:18.153Z,53.95
2016-09-14T02:16:40.864Z,54.52
2016-09-14T02:17:02.592Z,54.68
2016-09-14T02:17:25.325Z,54.65
2016-09-14T02:17:47.046Z,54.50
2016-09-14T02:18:12.410Z,54.56
2016-09-14T02:18:34.137Z,54.36
2016-09-14T02:18:55.859Z,54.50
2016-09-14T02:19:17.580Z,54.54
2016-09-14T02:20:05.798Z,54.32
2016-09-14T02:20:32.298Z,54.38
2016-09-14T02:20:58.784Z,54.52
2016-09-14T02:21:20.512Z,54.52
2016-09-14T02:21:44.905Z,54.35
2016-09-14T02:22:06.624Z,54.39
2016-09-14T02:22:28.345Z,54.38
2016-09-14T02:22:50.122Z,54.23
2016-09-14T02:23:11.840Z,54.58
2016-09-14T02:23:33.577Z,54.78
2016-09-14T02:23:56.319Z,54.92
2016-09-14T02:24:18.028Z,54.83
2016-09-14T02:24:39.754Z,54.42
2016-09-14T02:25:01.487Z,54.28
2016-09-14T02:25:23.203Z,54.24
2016-09-14T02:25:44.946Z,54.11
2016-09-14T02:26:06.665Z,54.35
2016-09-14T02:26:28.403Z,54.24
2016-09-14T02:26:50.128Z,54.33
2016-09-14T02:27:11.856Z,54.40
2016-09-14T02:27:33.578Z,54.54
2016-09-14T02:27:55.286Z,54.42
2016-09-14T02:28:17.027Z,54.39
2016-09-14T02:28:40.752Z,54.12
2016-09-14T02:29:02.467Z,54.09
2016-09-14T02:29:24.221Z,54.58
2016-09-14T02:29:45.932Z,54.69
2016-09-14T02:30:08.651Z,54.66
2016-09-14T02:30:31.370Z,54.73
2016-09-14T02:30:53.088Z,54.55
2016-09-14T02:31:19.584Z,54.52
2016-09-14T02:31:41.312Z,54.66
2016-09-14T02:32:03.036Z,54.48
2016-09-14T02:32:24.761Z,54.47
2016-09-14T02:32:46.486Z,54.68
2016-09-14T02:33:08.256Z,54.42
2016-09-14T02:33:34.742Z,54.37
2016-09-14T02:33:56.464Z,54.16
2016-09-14T02:34:18.178Z,54.40
2016-09-14T02:34:39.910Z,54.32
2016-09-14T02:35:01.642Z,54.29
2016-09-14T02:35:23.359Z,54.21
2016-09-14T02:35:45.085Z,54.35
2016-09-14T02:36:11.577Z,54.11
2016-09-14T02:36:33.325Z,54.27
2016-09-14T02:36:56.057Z,54.52
2016-09-14T02:37:22.547Z,54.75
2016-09-14T02:37:44.265Z,55.09
2016-09-14T02:38:05.990Z,54.96
2016-09-14T02:38:27.711Z,55.07
2016-09-14T02:38:49.426Z,54.86
2016-09-14T02:39:11.183Z,54.72
2016-09-14T02:39:32.901Z,54.66
2016-09-14T02:39:54.626Z,54.49
2016-09-14T02:40:16.335Z,54.47
2016-09-14T02:40:38.079Z,54.79
2016-09-14T02:40:59.795Z,55.44
2016-09-14T02:41:21.523Z,55.35
2016-09-14T02:41:43.274Z,55.53
2016-09-14T02:42:04.981Z,55.59
2016-09-14T02:42:26.694Z,55.27
2016-09-14T02:42:48.454Z,54.90
2016-09-14T02:43:10.160Z,54.86
2016-09-14T02:43:31.945Z,55.20
2016-09-14T02:43:53.676Z,54.88
2016-09-14T02:44:15.401Z,54.84
2016-09-14T02:44:37.122Z,55.05
2016-09-14T02:45:25.360Z,55.06
2016-09-14T02:46:13.609Z,54.76
2016-09-14T02:46:35.337Z,54.83
2016-09-14T02:46:57.078Z,54.57
2016-09-14T02:47:18.793Z,54.47
2016-09-14T02:47:40.535Z,54.40
2016-09-14T02:48:28.755Z,54.42
2016-09-14T02:48:50.476Z,54.47
2016-09-14T02:49:12.213Z,55.17
2016-09-14T02:49:33.961Z,55.28
2016-09-14T02:49:55.694Z,55.51
2016-09-14T02:50:17.480Z,55.19
2016-09-14T02:50:39.250Z,54.98
2016-09-14T02:51:00.981Z,55.08
2016-09-14T02:51:22.709Z,54.97
2016-09-14T02:51:53.973Z,55.20
2016-09-14T02:52:42.208Z,55.47
2016-09-14T02:53:30.603Z,55.41
2016-09-14T02:53:52.334Z,55.40
2016-09-14T02:54:14.059Z,55.25
2016-09-14T02:54:35.796Z,55.17
2016-09-14T02:54:57.525Z,54.98
2016-09-14T02:55:19.247Z,55.05
2016-09-14T02:55:42.040Z,54.90
2016-09-14T02:56:03.749Z,54.87
2016-09-14T02:56:25.551Z,54.69
2016-09-14T02:56:47.270Z,54.92
2016-09-14T02:57:08.988Z,55.25
2016-09-14T02:57:30.735Z,55.19
2016-09-14T02:57:52.530Z,55.33
2016-09-14T02:58:14.274Z,55.46
2016-09-14T02:58:35.992Z,55.16
2016-09-14T02:58:57.721Z,54.94
2016-09-14T02:59:19.455Z,54.97
2016-09-14T02:59:41.209Z,55.05
2016-09-14T03:00:03.928Z,54.98
2016-09-14T03:00:25.692Z,54.85
2016-09-14T03:00:47.426Z,54.68
2016-09-14T03:01:09.193Z,54.78
2016-09-14T03:01:30.949Z,54.59
2016-09-14T03:01:52.673Z,55.20
2016-09-14T03:02:14.437Z,55.49
2016-09-14T03:02:36.155Z,55.47
2016-09-14T03:02:57.887Z,55.68
2016-09-14T03:03:19.619Z,55.60
2016-09-14T03:03:41.359Z,55.37
2016-09-14T03:04:03.083Z,55.21
2016-09-14T03:04:24.817Z,55.08
2016-09-14T03:04:46.553Z,54.85
2016-09-14T03:05:08.277Z,55.23
2016-09-14T03:05:30.019Z,55.50
2016-09-14T03:05:51.781Z,55.33
2016-09-14T03:06:13.506Z,55.46
2016-09-14T03:06:35.224Z,55.51
2016-09-14T03:06:56.962Z,55.14
2016-09-14T03:07:18.684Z,54.98
2016-09-14T03:07:40.408Z,54.78
2016-09-14T03:08:02.140Z,54.98
2016-09-14T03:08:23.871Z,55.07
2016-09-14T03:08:45.593Z,55.46
2016-09-14T03:09:07.331Z,55.90
2016-09-14T03:09:29.116Z,56.04
2016-09-14T03:09:53.458Z,56.17
2016-09-14T03:10:15.215Z,55.94
2016-09-14T03:10:36.937Z,55.73
2016-09-14T03:10:58.659Z,55.53
2016-09-14T03:11:20.376Z,55.27
2016-09-14T03:11:42.136Z,55.12
2016-09-14T03:12:03.868Z,55.45
2016-09-14T03:12:25.682Z,55.56
2016-09-14T03:12:47.407Z,55.47
2016-09-14T03:13:09.141Z,56.00
2016-09-14T03:13:30.866Z,55.81
2016-09-14T03:13:52.594Z,55.83
2016-09-14T03:14:14.316Z,55.79
2016-09-14T03:14:36.047Z,55.54
2016-09-14T03:14:57.880Z,55.60
2016-09-14T03:15:19.621Z,55.41
2016-09-14T03:16:07.836Z,55.23
2016-09-14T03:16:29.600Z,55.35
2016-09-14T03:16:51.315Z,55.43
2016-09-14T03:17:13.148Z,55.57
2016-09-14T03:17:34.863Z,55.55
2016-09-14T03:17:56.594Z,55.29
2016-09-14T03:18:18.399Z,55.20
2016-09-14T03:18:40.143Z,55.09
2016-09-14T03:19:01.868Z,54.94
2016-09-14T03:19:23.586Z,54.87
2016-09-14T03:19:45.312Z,54.83
2016-09-14T03:20:07.062Z,55.42
2016-09-14T03:20:28.795Z,55.46
2016-09-14T03:20:50.520Z,55.29
2016-09-14T03:21:12.270Z,55.19
2016-09-14T03:21:34.033Z,55.57
2016-09-14T03:21:55.759Z,55.76
2016-09-14T03:22:17.478Z,55.95
2016-09-14T03:22:39.193Z,56.08
2016-09-14T03:23:00.930Z,55.70
2016-09-14T03:23:22.649Z,55.32
2016-09-14T03:23:44.386Z,54.86
2016-09-14T03:24:06.111Z,54.81
2016-09-14T03:24:27.826Z,54.99
2016-09-14T03:24:49.541Z,55.28
2016-09-14T03:25:11.311Z,55.56
2016-09-14T03:25:33.023Z,55.48
2016-09-14T03:25:54.748Z,55.20
2016-09-14T03:26:16.569Z,55.00
2016-09-14T03:26:38.293Z,55.16
2016-09-14T03:27:00.009Z,55.67
2016-09-14T03:27:21.733Z,55.58
2016-09-14T03:27:43.577Z,55.20
2016-09-14T03:28:05.300Z,54.81
2016-09-14T03:28:27.023Z,54.74
2016-09-14T03:28:48.752Z,54.88
2016-09-14T03:29:10.546Z,54.89
2016-09-14T03:29:32.268Z,54.76
2016-09-14T03:29:53.987Z,54.68
2016-09-14T03:30:15.714Z,54.58
2016-09-14T03:30:37.432Z,54.28
2016-09-14T03:30:59.155Z,54.14
2016-09-14T03:31:20.892Z,54.53
2016-09-14T03:31:42.620Z,54.69
2016-09-14T03:32:04.354Z,54.59
2016-09-14T03:32:26.068Z,54.73
2016-09-14T03:32:47.797Z,55.03
2016-09-14T03:33:09.510Z,55.21
2016-09-14T03:33:31.232Z,55.03
2016-09-14T03:33:52.962Z,54.99
2016-09-14T03:34:14.722Z,54.80
2016-09-14T03:34:36.444Z,54.61
2016-09-14T03:34:58.370Z,54.63
2016-09-14T03:35:20.092Z,54.67
2016-09-14T03:35:41.833Z,54.91
2016-09-14T03:36:03.567Z,54.80
2016-09-14T03:36:25.333Z,54.69
2016-09-14T03:36:47.068Z,54.81
2016-09-14T03:37:08.783Z,54.89
2016-09-14T03:37:30.579Z,54.63
2016-09-14T03:37:52.299Z,54.58
2016-09-14T03:38:14.028Z,54.57
2016-09-14T03:38:35.753Z,54.31
2016-09-14T03:38:57.471Z,54.28
2016-09-14T03:39:19.260Z,54.31
2016-09-14T03:39:41.042Z,54.77
2016-09-14T03:40:02.758Z,55.02
2016-09-14T03:40:24.486Z,55.02
2016-09-14T03:40:46.274Z,54.75
2016-09-14T03:41:08.003Z,54.77
2016-09-14T03:41:29.739Z,54.69
2016-09-14T03:41:51.510Z,54.67
2016-09-14T03:42:13.250Z,54.63
2016-09-14T03:42:34.973Z,54.75
2016-09-14T03:42:56.700Z,55.14
2016-09-14T03:43:18.427Z,55.37
2016-09-14T03:43:40.176Z,55.29
2016-09-14T03:44:01.900Z,55.36
2016-09-14T03:44:23.615Z,55.21
2016-09-14T03:44:45.427Z,55.18
2016-09-14T03:45:07.147Z,55.43
2016-09-14T03:45:28.875Z,55.86
2016-09-14T03:45:50.680Z,55.66
2016-09-14T03:46:12.415Z,55.67
2016-09-14T03:46:34.130Z,55.35
2016-09-14T03:46:55.906Z,55.20
2016-09-14T03:47:17.723Z,55.20
2016-09-14T03:47:39.432Z,55.05
2016-09-14T03:48:01.164Z,55.27
2016-09-14T03:48:22.895Z,55.03
2016-09-14T03:48:44.610Z,54.77
2016-09-14T03:49:06.341Z,55.04
2016-09-14T03:49:28.101Z,55.49
2016-09-14T03:49:49.823Z,55.55
2016-09-14T03:50:11.541Z,55.29
2016-09-14T03:50:33.282Z,55.06
2016-09-14T03:50:55.051Z,54.93
2016-09-14T03:51:16.767Z,55.32
2016-09-14T03:51:38.499Z,55.45
2016-09-14T03:52:00.220Z,55.62
2016-09-14T03:52:21.948Z,55.46
2016-09-14T03:52:43.681Z,54.98
2016-09-14T03:53:05.414Z,55.15
2016-09-14T03:53:27.141Z,55.18
2016-09-14T03:53:48.862Z,55.31
2016-09-14T03:54:10.607Z,55.38
2016-09-14T03:54:32.322Z,55.38
2016-09-14T03:54:54.050Z,55.14
2016-09-14T03:55:15.771Z,54.93
2016-09-14T03:55:37.500Z,55.30
2016-09-14T03:55:59.227Z,55.51
2016-09-14T03:56:20.952Z,55.16
2016-09-14T03:56:42.686Z,55.23
2016-09-14T03:57:04.425Z,55.42
2016-09-14T03:57:26.133Z,54.95
2016-09-14T03:57:47.887Z,54.96
2016-09-14T03:58:09.608Z,55.19
2016-09-14T03:58:31.334Z,55.41
2016-09-14T03:58:53.061Z,55.29
2016-09-14T03:59:14.793Z,55.20
2016-09-14T03:59:36.520Z,55.06
2016-09-14T03:59:58.268Z,55.36
2016-09-14T04:00:20.005Z,55.93
2016-09-14T04:00:42.741Z,56.09
2016-09-14T04:01:04.469Z,56.31
2016-09-14T04:01:27.215Z,56.59
2016-09-14T04:01:48.966Z,56.50
2016-09-14T04:02:10.691Z,56.18
2016-09-14T04:02:32.425Z,55.71
2016-09-14T04:02:54.246Z,55.72
2016-09-14T04:03:15.967Z,55.52
2016-09-14T04:03:37.758Z,55.45
2016-09-14T04:03:59.506Z,54.98
2016-09-14T04:04:21.254Z,54.91
2016-09-14T04:04:43.026Z,54.98
2016-09-14T04:05:04.770Z,55.27
2016-09-14T04:05:26.488Z,55.40
2016-09-14T04:05:48.281Z,55.33
2016-09-14T04:06:10.002Z,54.78
2016-09-14T04:06:31.769Z,54.74
2016-09-14T04:06:53.509Z,55.09
2016-09-14T04:07:15.221Z,55.29
2016-09-14T04:07:36.946Z,55.14
2016-09-14T04:07:58.677Z,55.32
2016-09-14T04:08:20.405Z,55.06
2016-09-14T04:08:42.181Z,54.97
2016-09-14T04:09:03.922Z,55.41
2016-09-14T04:09:25.633Z,55.66
2016-09-14T04:09:47.363Z,55.56
2016-09-14T04:10:09.109Z,55.60
2016-09-14T04:10:30.876Z,55.54
2016-09-14T04:10:52.613Z,55.70
2016-09-14T04:11:14.338Z,55.33
2016-09-14T04:11:36.060Z,55.39
2016-09-14T04:11:57.784Z,55.17
2016-09-14T04:12:19.513Z,55.02
2016-09-14T04:13:02.982Z,55.19
2016-09-14T04:13:24.706Z,55.42
2016-09-14T04:13:46.547Z,55.49
2016-09-14T04:14:08.268Z,55.95
2016-09-14T04:14:56.557Z,56.04
2016-09-14T04:15:18.285Z,56.23
2016-09-14T04:15:40.066Z,56.05
2016-09-14T04:16:01.785Z,55.80
2016-09-14T04:16:23.717Z,55.55
2016-09-14T04:16:45.440Z,55.53
2016-09-14T04:17:07.167Z,55.53
2016-09-14T04:17:28.902Z,55.27
2016-09-14T04:17:50.630Z,55.14
2016-09-14T04:18:12.364Z,55.20
2016-09-14T04:18:34.092Z,55.19
2016-09-14T04:18:55.825Z,55.06
2016-09-14T04:19:17.557Z,55.16
2016-09-14T04:19:39.272Z,55.19
2016-09-14T04:20:01.020Z,55.51
2016-09-14T04:20:22.754Z,55.60
2016-09-14T04:20:44.483Z,55.75
2016-09-14T04:21:06.203Z,55.69
2016-09-14T04:21:27.945Z,55.59
2016-09-14T04:21:49.702Z,55.55
2016-09-14T04:22:11.468Z,55.38
2016-09-14T04:22:33.197Z,55.45
2016-09-14T04:22:54.961Z,55.46
2016-09-14T04:23:16.723Z,55.40
2016-09-14T04:23:38.451Z,55.11
2016-09-14T04:24:00.202Z,55.15
2016-09-14T04:24:21.942Z,55.18
2016-09-14T04:24:43.665Z,55.00
2016-09-14T04:25:05.403Z,54.59
2016-09-14T04:25:27.131Z,54.15
2016-09-14T04:25:48.867Z,54.18
2016-09-14T04:26:11.696Z,54.22
2016-09-14T04:26:33.423Z,54.22
2016-09-14T04:26:55.158Z,54.23
2016-09-14T04:27:16.891Z,54.17
2016-09-14T04:27:38.619Z,54.15
2016-09-14T04:28:00.348Z,54.26
2016-09-14T04:28:22.083Z,54.16
2016-09-14T04:28:43.814Z,53.96
2016-09-14T04:29:05.536Z,54.07
2016-09-14T04:29:27.265Z,53.95
2016-09-14T04:29:53.772Z,54.08
2016-09-14T04:30:15.512Z,54.20
2016-09-14T04:30:37.254Z,54.14
2016-09-14T04:30:59.002Z,54.11
2016-09-14T04:31:20.722Z,54.28
2016-09-14T04:31:42.560Z,54.39
2016-09-14T04:32:04.284Z,54.42
2016-09-14T04:32:26.006Z,54.36
2016-09-14T04:32:47.772Z,54.37
2016-09-14T04:33:09.484Z,54.15
2016-09-14T04:33:31.209Z,54.16
2016-09-14T04:33:52.947Z,54.37
2016-09-14T04:34:14.682Z,54.31
2016-09-14T04:34:36.489Z,54.11
2016-09-14T04:34:58.220Z,54.14
2016-09-14T04:35:19.948Z,54.21
2016-09-14T04:35:41.679Z,54.27
2016-09-14T04:36:03.404Z,54.05
2016-09-14T04:36:25.133Z,53.77
2016-09-14T04:36:46.872Z,53.80
2016-09-14T04:37:08.604Z,53.73
2016-09-14T04:37:30.348Z,53.88
2016-09-14T04:37:52.179Z,53.94
2016-09-14T04:38:13.926Z,54.02
2016-09-14T04:38:35.651Z,53.76
2016-09-14T04:38:57.372Z,53.61
2016-09-14T04:39:19.098Z,53.86
2016-09-14T04:39:40.848Z,53.89
2016-09-14T04:40:02.591Z,53.79
2016-09-14T04:40:25.319Z,53.88
2016-09-14T04:40:47.053Z,53.73
2016-09-14T04:41:08.876Z,53.85
2016-09-14T04:41:30.607Z,54.00
2016-09-14T04:41:52.364Z,53.82
2016-09-14T04:42:14.230Z,53.79
2016-09-14T04:42:35.958Z,53.76
2016-09-14T04:42:57.683Z,53.82
2016-09-14T04:43:19.416Z,53.63
2016-09-14T04:43:41.157Z,53.72
2016-09-14T04:44:02.879Z,53.89
2016-09-14T04:44:24.611Z,53.64
2016-09-14T04:44:46.373Z,53.79
2016-09-14T04:45:08.221Z,53.73
2016-09-14T04:45:29.964Z,53.73
2016-09-14T04:45:51.708Z,53.84
2016-09-14T04:46:13.427Z,53.86
2016-09-14T04:46:35.181Z,53.71
2016-09-14T04:46:56.901Z,53.68
2016-09-14T04:47:18.633Z,53.67
2016-09-14T04:47:40.387Z,53.75
2016-09-14T04:48:02.108Z,53.54
2016-09-14T04:48:24.003Z,53.56
2016-09-14T04:48:45.729Z,53.46
2016-09-14T04:49:07.466Z,53.64
2016-09-14T04:49:29.196Z,53.50
2016-09-14T04:49:50.914Z,53.50
2016-09-14T04:50:12.645Z,53.63
2016-09-14T04:50:34.363Z,53.50
2016-09-14T04:50:56.136Z,53.69
2016-09-14T04:51:17.858Z,53.59
2016-09-14T04:51:39.586Z,53.75